Terminal Aerodrome Forecast
Issued by NWS

Home | Current Version | Previous Version | Text Only | Print | Product List | Glossary Off
Versions: 1 2 3 4 5 6 7 8 9 10 11 12 13 14 15 16 17 18

005
FTUS43 KBIS 070525
TAFMOT
TAF
KMOT 070525Z 0706/0806 30028G41KT P6SM BKN060
     FM071500 32032G48KT 6SM -SHSN BLSN OVC020
     FM071800 30034G51KT 4SM -SHSN BLSN OVC015
     FM072200 32032G45KT 6SM -SHSN BLSN OVC020
     FM080300 31031G43KT P6SM SCT030=

USA.gov is the U.S. government's official web portal to all federal, state and local government web resources and services.